Terminal Aerodrome Forecast
Issued by NWS

Current Version | Previous Version | Text Only | Print | Product List | Glossary On
Versions: 1 2 3 4 5 6 7 8 9 10 11 12 13 14 15 16 17
000
FTUS41 KBOX 180524
TAFACK
TAF
KACK 180524Z 1806/1906 10011G23KT 6SM -RA BR OVC015
     FM180900 10015G25KT 3SM -RA BR OVC008
     FM181200 10017G27KT 2SM -RA BR OVC008
     FM181400 08017G34KT 2SM BR VCSH OVC008=

USA.gov is the U.S. government's official web portal to all federal, state and local government web resources and services.